Time;durP1;ratioP1;P1;durP2;ratioP2;P2;SDS_P1;SDS_P2;PMS_P1;PMS_P2;Temp;Humidity;BMP_temperature;BMP_pressure;BME280_temperature;BME280_humidity;BME280_pressure;Samples;Min_cycle;Max_cycle;Signal;HPM_P1;HPM_P2
2022/10/27 00:00:28;;;;;;;5.70;3.27;;;12.40;99.90;;;;;;5106659;28;20217;-84
2022/10/27 00:02:55;;;;;;;5.60;3.20;;;12.40;99.90;;;;;;5095804;28;20221;-84
2022/10/27 00:05:22;;;;;;;5.60;3.17;;;12.30;99.90;;;;;;5093538;28;20399;-85
2022/10/27 00:07:49;;;;;;;6.63;3.23;;;12.30;99.90;;;;;;5109299;28;20200;-85
2022/10/27 00:10:16;;;;;;;5.27;3.23;;;12.40;99.90;;;;;;5106101;28;20296;-84
2022/10/27 00:12:44;;;;;;;7.67;3.17;;;12.40;99.90;;;;;;5090874;28;20571;-84
2022/10/27 00:15:12;;;;;;;5.73;3.13;;;12.40;99.90;;;;;;5099596;28;20197;-84
2022/10/27 00:17:39;;;;;;;3.57;3.20;;;12.20;99.90;;;;;;5113468;28;20193;-84
2022/10/27 00:20:07;;;;;;;5.43;3.23;;;12.40;99.90;;;;;;5113487;28;20235;-85
2022/10/27 00:22:35;;;;;;;4.43;2.87;;;12.30;99.90;;;;;;5112618;28;20215;-85
2022/10/27 00:25:02;;;;;;;5.67;3.63;;;12.20;99.90;;;;;;5109191;28;20204;-84
2022/10/27 00:27:28;;;;;;;5.43;3.10;;;12.20;99.90;;;;;;5100624;28;20197;-84
2022/10/27 00:29:56;;;;;;;5.03;3.10;;;12.40;99.90;;;;;;5111245;28;20323;-84
2022/10/27 00:32:24;;;;;;;8.37;3.40;;;12.30;99.90;;;;;;5113742;28;20403;-84
2022/10/27 00:34:51;;;;;;;6.97;3.47;;;12.50;99.90;;;;;;5117512;28;20650;-84
2022/10/27 00:37:17;;;;;;;5.17;3.07;;;12.40;99.90;;;;;;5117579;28;20193;-84
2022/10/27 00:39:44;;;;;;;5.80;3.17;;;12.20;99.90;;;;;;5114549;28;20225;-84
2022/10/27 00:42:13;;;;;;;6.27;3.70;;;12.40;99.90;;;;;;5118154;28;20211;-84
2022/10/27 00:44:41;;;;;;;6.03;2.80;;;12.40;99.90;;;;;;5101838;28;20210;-84
2022/10/27 00:47:19;;;;;;;7.13;3.70;;;12.30;99.90;;;;;;5115082;28;20409;-84
2022/10/27 00:49:50;;;;;;;5.13;3.00;;;12.50;99.90;;;;;;5108145;28;20239;-85
2022/10/27 00:52:23;;;;;;;7.97;3.57;;;12.40;99.90;;;;;;5102701;28;20205;-84
2022/10/27 00:54:51;;;;;;;7.20;3.07;;;12.30;99.90;;;;;;5100852;28;20201;-84
2022/10/27 00:57:18;;;;;;;5.20;2.77;;;12.50;99.90;;;;;;5116653;28;20215;-85
2022/10/27 00:59:45;;;;;;;4.67;3.00;;;12.30;99.90;;;;;;5113964;28;20217;-84
2022/10/27 01:02:14;;;;;;;6.53;3.13;;;13.00;99.90;;;;;;5103857;28;20569;-84
2022/10/27 01:04:45;;;;;;;5.43;2.83;;;12.90;99.90;;;;;;5112397;28;20280;-84
2022/10/27 01:07:16;;;;;;;5.50;2.80;;;12.80;99.90;;;;;;5113480;28;20212;-84
2022/10/27 01:09:43;;;;;;;7.10;3.53;;;12.70;99.90;;;;;;5104951;28;20225;-84
2022/10/27 01:12:10;;;;;;;3.50;3.00;;;12.70;99.90;;;;;;5111449;28;20509;-84
2022/10/27 01:14:37;;;;;;;3.43;2.70;;;12.60;99.90;;;;;;5115789;28;20606;-85
2022/10/27 01:17:16;;;;;;;11.13;3.73;;;12.60;99.90;;;;;;5109182;28;20197;-85
2022/10/27 01:20:09;;;;;;;6.77;3.47;;;12.60;99.90;;;;;;5114367;28;20212;-84
2022/10/27 01:22:43;;;;;;;5.70;3.23;;;12.50;99.90;;;;;;5096192;28;20456;-84
2022/10/27 01:25:40;;;;;;;5.70;3.07;;;12.50;99.90;;;;;;5106881;28;20215;-84
2022/10/27 01:28:36;;;;;;;4.30;2.93;;;12.50;99.90;;;;;;5093374;28;20209;-84
2022/10/27 01:31:09;;;;;;;5.37;3.20;;;12.50;99.90;;;;;;5111951;28;20201;-84
2022/10/27 01:33:40;;;;;;;6.93;3.50;;;12.40;99.90;;;;;;5108575;28;20202;-84
2022/10/27 01:36:15;;;;;;;5.83;3.00;;;12.50;99.90;;;;;;5099414;28;20312;-84
2022/10/27 01:38:48;;;;;;;4.10;2.90;;;12.40;99.90;;;;;;5117544;28;20205;-85
2022/10/27 01:41:20;;;;;;;6.60;3.20;;;12.40;99.90;;;;;;5105635;28;20193;-85
2022/10/27 01:43:49;;;;;;;6.67;3.47;;;12.40;99.90;;;;;;5094179;28;20213;-84
2022/10/27 01:46:18;;;;;;;8.50;3.33;;;12.50;99.90;;;;;;5096188;28;20194;-84
2022/10/27 01:48:46;;;;;;;5.27;3.17;;;12.30;99.90;;;;;;5100642;28;20567;-84
2022/10/27 01:51:13;;;;;;;4.00;3.00;;;12.30;99.90;;;;;;5100164;28;20209;-85
2022/10/27 01:53:44;;;;;;;9.17;3.50;;;12.30;99.90;;;;;;5103969;28;20208;-84
2022/10/27 01:56:33;;;;;;;8.20;3.37;;;12.10;99.90;;;;;;5115553;28;20197;-84
2022/10/27 01:59:17;;;;;;;6.87;3.53;;;12.20;99.90;;;;;;5088179;28;20229;-85
2022/10/27 02:01:53;;;;;;;5.17;3.30;;;12.20;99.90;;;;;;5098959;28;20952;-85
2022/10/27 02:04:25;;;;;;;3.93;3.37;;;12.20;99.90;;;;;;5107708;28;20586;-84
2022/10/27 02:06:58;;;;;;;5.83;3.07;;;12.20;99.90;;;;;;5103039;28;20283;-84
2022/10/27 02:09:35;;;;;;;6.33;3.57;;;12.10;99.90;;;;;;5115855;28;20221;-84
2022/10/27 02:12:04;;;;;;;4.97;3.03;;;12.10;99.90;;;;;;5117621;28;20211;-84
2022/10/27 02:14:34;;;;;;;5.33;3.37;;;12.10;99.90;;;;;;5114716;28;20208;-84
2022/10/27 02:17:05;;;;;;;6.43;3.50;;;12.10;99.90;;;;;;5116416;28;20189;-84
2022/10/27 02:19:35;;;;;;;7.37;3.63;;;12.00;99.90;;;;;;5115336;28;20216;-84
2022/10/27 02:22:04;;;;;;;7.87;3.93;;;12.00;99.90;;;;;;5115989;28;20207;-85
2022/10/27 02:24:31;;;;;;;7.23;3.80;;;12.00;99.90;;;;;;5114314;28;20262;-84
2022/10/27 02:27:05;;;;;;;3.63;3.33;;;11.90;99.90;;;;;;5116963;28;20209;-84
2022/10/27 02:29:35;;;;;;;7.70;4.03;;;11.90;99.90;;;;;;5104333;28;20219;-84
2022/10/27 02:32:09;;;;;;;4.73;3.53;;;11.90;99.90;;;;;;5101284;28;20206;-84
2022/10/27 02:34:37;;;;;;;6.33;3.93;;;11.90;99.90;;;;;;5113466;28;20203;-84
2022/10/27 02:37:05;;;;;;;5.10;3.70;;;11.80;99.90;;;;;;5116765;28;20644;-84
2022/10/27 02:39:32;;;;;;;7.00;3.70;;;11.80;99.90;;;;;;5112899;28;20224;-85
2022/10/27 02:41:59;;;;;;;6.17;3.80;;;11.80;99.90;;;;;;5115118;28;20209;-84
2022/10/27 02:44:25;;;;;;;8.30;4.03;;;11.70;99.90;;;;;;5115535;28;20308;-84
2022/10/27 02:46:52;;;;;;;10.03;4.00;;;11.80;99.90;;;;;;5113825;28;20215;-85
2022/10/27 02:49:20;;;;;;;8.03;4.07;;;11.90;99.90;;;;;;5096273;28;20248;-84
2022/10/27 02:51:47;;;;;;;6.60;4.00;;;11.70;99.90;;;;;;5094510;28;20565;-84
2022/10/27 02:54:14;;;;;;;7.70;3.87;;;11.60;99.90;;;;;;5117145;28;20197;-84
2022/10/27 02:56:41;;;;;;;6.10;4.17;;;11.60;99.90;;;;;;5093811;28;20221;-85
2022/10/27 02:59:07;;;;;;;7.20;3.87;;;11.60;99.90;;;;;;5096647;28;20221;-84
2022/10/27 03:01:34;;;;;;;7.00;4.23;;;11.60;99.90;;;;;;5111021;28;20228;-85
2022/10/27 03:04:01;;;;;;;7.10;3.93;;;11.60;99.90;;;;;;5108134;28;20221;-84
2022/10/27 03:06:29;;;;;;;6.63;3.97;;;11.60;99.90;;;;;;5106362;28;20197;-85
2022/10/27 03:08:56;;;;;;;4.57;3.53;;;11.60;99.90;;;;;;5114846;28;20223;-84
2022/10/27 03:11:23;;;;;;;6.17;3.97;;;11.60;99.90;;;;;;5111781;28;20542;-84
2022/10/27 03:13:50;;;;;;;8.60;4.73;;;11.50;99.90;;;;;;5112899;28;20283;-85
2022/10/27 03:16:16;;;;;;;10.87;4.40;;;11.20;99.90;;;;;;5114159;28;20207;-85
2022/10/27 03:18:43;;;;;;;9.83;4.00;;;11.20;99.90;;;;;;5113219;28;20726;-84
2022/10/27 03:21:10;;;;;;;9.00;3.87;;;11.30;99.90;;;;;;5113256;28;20699;-84
2022/10/27 03:23:38;;;;;;;5.57;3.90;;;11.30;99.90;;;;;;5113559;28;20225;-84
2022/10/27 03:26:05;;;;;;;5.20;3.30;;;11.30;99.90;;;;;;5111009;28;20279;-84
2022/10/27 03:28:34;;;;;;;8.07;4.33;;;11.30;99.90;;;;;;5110531;28;20221;-85
2022/10/27 03:31:01;;;;;;;10.27;6.13;;;11.30;99.90;;;;;;5112283;28;20414;-85
2022/10/27 03:33:28;;;;;;;13.77;9.30;;;11.20;99.90;;;;;;5113416;28;20649;-84
2022/10/27 03:35:54;;;;;;;13.97;8.67;;;11.30;99.90;;;;;;5113382;28;20185;-84
2022/10/27 03:38:21;;;;;;;8.70;5.23;;;11.30;99.90;;;;;;5115086;28;20217;-84
2022/10/27 03:40:49;;;;;;;6.97;4.20;;;11.30;99.90;;;;;;5113503;28;20764;-84
2022/10/27 03:43:16;;;;;;;8.33;3.97;;;11.40;99.90;;;;;;5113510;28;20204;-84
2022/10/27 03:45:47;;;;;;;7.67;3.80;;;11.30;99.90;;;;;;5113215;28;20207;-84
2022/10/27 03:48:14;;;;;;;11.07;4.13;;;11.30;99.90;;;;;;5114295;28;20296;-84
2022/10/27 03:50:44;;;;;;;5.53;3.73;;;11.50;99.90;;;;;;5113649;28;20236;-84
2022/10/27 03:53:11;;;;;;;8.33;4.00;;;11.40;99.90;;;;;;5113824;28;20215;-84
2022/10/27 03:55:38;;;;;;;8.43;4.07;;;11.30;99.90;;;;;;5114783;28;20498;-84
2022/10/27 03:58:06;;;;;;;7.00;4.17;;;11.40;99.90;;;;;;5115015;28;20193;-84
2022/10/27 04:00:33;;;;;;;6.13;3.97;;;11.40;99.90;;;;;;5114453;28;20231;-84
2022/10/27 04:02:59;;;;;;;5.97;4.13;;;11.30;99.90;;;;;;5114587;28;20219;-85
2022/10/27 04:05:26;;;;;;;6.53;4.07;;;11.30;99.90;;;;;;5114224;28;20220;-84
2022/10/27 04:07:53;;;;;;;11.57;4.33;;;11.40;99.90;;;;;;5114106;28;20217;-84
2022/10/27 04:10:20;;;;;;;6.63;3.63;;;11.40;99.90;;;;;;5113508;28;20228;-80
2022/10/27 04:12:51;;;;;;;4.67;4.10;;;11.10;99.90;;;;;;5115014;28;20206;-84
2022/10/27 04:15:21;;;;;;;8.13;4.17;;;11.10;99.90;;;;;;5108189;28;20197;-84
2022/10/27 04:17:47;;;;;;;7.93;4.40;;;11.00;99.90;;;;;;5113166;28;20201;-84
2022/10/27 04:20:15;;;;;;;7.23;4.20;;;11.00;99.90;;;;;;5112320;28;20223;-84
2022/10/27 04:22:42;;;;;;;9.33;5.03;;;11.00;99.90;;;;;;5114176;28;20201;-84
2022/10/27 04:25:09;;;;;;;11.20;6.60;;;11.10;99.90;;;;;;5113625;28;20223;-84
2022/10/27 04:27:35;;;;;;;6.50;4.53;;;11.10;99.90;;;;;;5112205;28;20193;-84
2022/10/27 04:30:02;;;;;;;8.23;4.43;;;11.00;99.90;;;;;;5113772;28;20711;-83
2022/10/27 04:32:30;;;;;;;5.00;3.70;;;11.00;99.90;;;;;;5114419;28;20201;-86
2022/10/27 04:34:57;;;;;;;8.20;4.43;;;11.10;99.90;;;;;;5112657;28;20284;-86
2022/10/27 04:37:25;;;;;;;4.70;3.20;;;11.00;99.90;;;;;;5112404;28;20201;-86
2022/10/27 04:39:52;;;;;;;6.30;4.10;;;10.70;99.90;;;;;;5111516;28;20225;-86
2022/10/27 04:42:18;;;;;;;8.30;4.00;;;10.50;99.90;;;;;;5112727;28;20209;-86
2022/10/27 04:44:46;;;;;;;6.97;4.67;;;10.40;99.90;;;;;;5112529;28;20217;-86
2022/10/27 04:47:13;;;;;;;7.27;4.87;;;10.80;99.90;;;;;;5111752;28;20469;-86
2022/10/27 04:49:41;;;;;;;6.77;4.90;;;10.80;99.90;;;;;;5112372;28;20254;-86
2022/10/27 04:52:08;;;;;;;9.07;4.53;;;10.90;99.90;;;;;;5111402;28;20200;-86
2022/10/27 04:54:34;;;;;;;6.97;4.00;;;10.70;99.90;;;;;;5112601;28;20577;-86
2022/10/27 04:57:01;;;;;;;9.30;4.20;;;10.70;99.90;;;;;;5111831;28;20296;-85
2022/10/27 04:59:28;;;;;;;8.17;4.77;;;10.60;99.90;;;;;;5112199;28;20577;-85
2022/10/27 05:01:55;;;;;;;6.87;4.03;;;10.60;99.90;;;;;;5112082;28;20211;-86
2022/10/27 05:04:22;;;;;;;6.77;4.13;;;10.50;99.90;;;;;;5112744;28;20299;-86
2022/10/27 05:06:50;;;;;;;6.03;4.23;;;10.50;99.90;;;;;;5111254;28;20570;-86
2022/10/27 05:09:16;;;;;;;7.40;4.40;;;10.60;99.90;;;;;;5111711;28;20240;-86
2022/10/27 05:11:43;;;;;;;4.83;3.90;;;10.60;99.90;;;;;;5110129;28;20205;-86
2022/10/27 05:14:10;;;;;;;6.90;3.73;;;10.60;99.90;;;;;;5112116;28;20189;-86
2022/10/27 05:16:37;;;;;;;6.07;3.70;;;10.50;99.90;;;;;;5111976;28;20687;-86
2022/10/27 05:19:03;;;;;;;6.37;4.10;;;10.50;99.90;;;;;;5112649;28;20221;-85
2022/10/27 05:21:31;;;;;;;8.53;4.00;;;10.50;99.90;;;;;;5115766;28;20578;-85
2022/10/27 05:23:59;;;;;;;4.37;3.97;;;10.50;99.90;;;;;;5115971;28;20220;-85
2022/10/27 05:26:27;;;;;;;6.50;3.80;;;10.50;99.90;;;;;;5116055;28;20679;-85
2022/10/27 05:28:53;;;;;;;6.80;3.90;;;10.40;99.90;;;;;;5115005;28;20629;-85
2022/10/27 05:31:20;;;;;;;6.57;4.17;;;10.20;99.90;;;;;;5116091;28;20289;-86
2022/10/27 05:33:47;;;;;;;8.63;4.27;;;10.30;99.90;;;;;;5116079;28;20238;-85
2022/10/27 05:36:14;;;;;;;4.53;3.83;;;10.20;99.90;;;;;;5115448;28;20215;-85
2022/10/27 05:38:41;;;;;;;6.37;3.83;;;10.10;99.90;;;;;;5114963;28;20201;-85
2022/10/27 05:41:10;;;;;;;5.17;4.17;;;10.10;99.90;;;;;;5113853;28;20589;-86
2022/10/27 05:43:37;;;;;;;6.20;4.03;;;10.10;99.90;;;;;;5114221;28;20208;-85
2022/10/27 05:46:05;;;;;;;5.73;4.10;;;10.10;99.90;;;;;;5114899;28;20259;-85
2022/10/27 05:48:31;;;;;;;5.37;3.80;;;10.10;99.90;;;;;;5115257;28;20201;-85
2022/10/27 05:50:58;;;;;;;6.90;3.83;;;10.10;99.90;;;;;;5113969;28;20215;-86
2022/10/27 05:53:25;;;;;;;4.87;4.07;;;10.20;99.90;;;;;;5114535;28;20256;-85
2022/10/27 05:55:52;;;;;;;6.17;3.80;;;10.20;99.90;;;;;;5115061;28;20219;-86
2022/10/27 05:58:21;;;;;;;6.27;4.03;;;10.10;99.90;;;;;;5114711;28;20197;-81
2022/10/27 06:00:48;;;;;;;5.10;3.80;;;10.20;99.90;;;;;;5116381;28;20685;-81
2022/10/27 06:03:20;;;;;;;5.77;4.00;;;10.30;99.90;;;;;;5116508;28;20231;-81
2022/10/27 06:05:48;;;;;;;7.87;4.87;;;10.30;99.90;;;;;;5115662;28;20295;-81
2022/10/27 06:08:14;;;;;;;9.43;4.80;;;10.10;99.90;;;;;;5116081;28;20201;-81
2022/10/27 06:10:41;;;;;;;5.67;4.30;;;10.20;99.90;;;;;;5115523;28;20227;-81
2022/10/27 06:13:10;;;;;;;10.93;4.47;;;10.20;99.90;;;;;;5114782;28;20292;-81
2022/10/27 06:15:39;;;;;;;9.93;4.80;;;10.20;99.90;;;;;;5116765;28;20205;-81
2022/10/27 06:18:06;;;;;;;6.43;4.40;;;10.30;99.90;;;;;;5116067;28;20207;-81
2022/10/27 06:20:33;;;;;;;8.53;4.80;;;10.10;99.90;;;;;;5115636;28;20770;-81
2022/10/27 06:22:59;;;;;;;7.90;4.90;;;10.20;99.90;;;;;;5116282;28;20653;-81
2022/10/27 06:25:26;;;;;;;8.83;5.03;;;10.20;99.90;;;;;;5115914;28;20223;-81
2022/10/27 06:27:53;;;;;;;11.20;5.53;;;10.30;99.90;;;;;;5116133;28;20211;-81
2022/10/27 06:30:20;;;;;;;8.33;6.43;;;10.40;99.90;;;;;;5115415;28;20229;-81
2022/10/27 06:32:48;;;;;;;9.10;5.23;;;10.40;99.90;;;;;;5115927;28;20197;-81
2022/10/27 06:35:15;;;;;;;8.87;6.03;;;10.40;99.90;;;;;;5115814;28;20215;-81
2022/10/27 06:37:44;;;;;;;12.33;6.50;;;10.40;99.90;;;;;;5115402;28;20653;-81
2022/10/27 06:40:12;;;;;;;10.00;6.13;;;10.50;99.90;;;;;;5113713;28;20220;-81
2022/10/27 06:42:39;;;;;;;8.90;5.90;;;10.50;99.90;;;;;;5115605;28;20211;-81
2022/10/27 06:45:07;;;;;;;10.60;6.00;;;10.60;99.90;;;;;;5115568;28;20224;-81
2022/10/27 06:47:34;;;;;;;9.20;6.37;;;10.70;99.90;;;;;;5115346;28;20208;-80
2022/10/27 06:50:02;;;;;;;8.77;6.10;;;11.00;99.90;;;;;;5115149;28;20236;-81
2022/10/27 06:52:29;;;;;;;10.40;5.93;;;10.90;99.90;;;;;;5115367;28;20201;-81
2022/10/27 06:54:55;;;;;;;10.37;5.90;;;11.10;99.90;;;;;;5114760;28;20197;-81
2022/10/27 06:57:22;;;;;;;9.57;5.73;;;11.30;99.90;;;;;;5113852;28;20197;-81
2022/10/27 06:59:49;;;;;;;11.17;6.00;;;11.40;99.90;;;;;;5113827;28;20224;-81
2022/10/27 07:02:16;;;;;;;10.23;5.63;;;11.50;99.90;;;;;;5115649;28;20293;-81
2022/10/27 07:04:42;;;;;;;7.07;5.80;;;11.60;99.90;;;;;;5115256;28;20224;-81
2022/10/27 07:07:10;;;;;;;8.00;5.60;;;11.70;99.90;;;;;;5114956;28;20213;-81
2022/10/27 07:09:37;;;;;;;7.93;5.20;;;11.70;99.90;;;;;;5114655;28;20231;-81
2022/10/27 07:12:04;;;;;;;9.80;5.50;;;11.70;99.90;;;;;;5113609;28;20293;-81
2022/10/27 07:14:31;;;;;;;6.93;5.07;;;11.60;99.90;;;;;;5113929;28;20205;-81
2022/10/27 07:16:58;;;;;;;10.97;5.27;;;11.70;99.90;;;;;;5113268;28;20215;-81
2022/10/27 07:19:25;;;;;;;7.97;5.13;;;11.60;99.90;;;;;;5110770;28;20577;-81
2022/10/27 07:21:52;;;;;;;8.60;4.87;;;11.70;99.90;;;;;;5113436;28;20286;-81
2022/10/27 07:24:20;;;;;;;10.30;5.97;;;11.90;99.90;;;;;;5114118;28;20193;-81
2022/10/27 07:26:47;;;;;;;9.83;5.53;;;12.00;99.90;;;;;;5113796;28;20220;-81
2022/10/27 07:29:13;;;;;;;8.27;5.93;;;12.40;99.90;;;;;;5114144;28;20312;-81
2022/10/27 07:31:43;;;;;;;9.00;5.30;;;12.60;99.90;;;;;;5113321;28;20201;-81
2022/10/27 07:34:10;;;;;;;7.43;5.50;;;12.70;99.90;;;;;;5114734;28;20207;-81
2022/10/27 07:36:37;;;;;;;7.53;5.60;;;12.80;99.90;;;;;;5113986;28;20219;-81
2022/10/27 07:39:04;;;;;;;10.17;5.90;;;12.70;99.90;;;;;;5113006;28;20224;-81
2022/10/27 07:41:33;;;;;;;9.63;5.50;;;13.00;99.90;;;;;;5113672;28;20675;-81
2022/10/27 07:44:00;;;;;;;8.77;5.67;;;13.40;99.90;;;;;;5112442;28;20514;-81
2022/10/27 07:46:26;;;;;;;11.87;5.43;;;13.80;99.90;;;;;;5113314;28;20221;-81
2022/10/27 07:48:53;;;;;;;9.07;5.57;;;13.80;99.90;;;;;;5114217;28;20699;-81
2022/10/27 07:51:20;;;;;;;11.27;6.30;;;13.80;99.90;;;;;;5111532;28;20553;-81
2022/10/27 07:53:49;;;;;;;7.87;5.23;;;13.70;99.90;;;;;;5113596;28;20200;-81
2022/10/27 07:56:16;;;;;;;11.40;6.17;;;13.80;99.90;;;;;;5093823;28;20204;-81
2022/10/27 07:58:44;;;;;;;9.80;5.90;;;13.70;99.90;;;;;;5106972;28;20215;-81
2022/10/27 08:01:11;;;;;;;10.15;5.07;;;13.70;99.90;;;;;;5112437;28;20205;-81
2022/10/27 08:03:37;;;;;;;11.97;6.37;;;13.80;99.90;;;;;;5113632;28;20208;-81
2022/10/27 08:06:04;;;;;;;9.77;5.73;;;14.00;99.90;;;;;;5112512;28;20224;-81
2022/10/27 08:08:31;;;;;;;8.47;5.93;;;14.10;99.90;;;;;;5112946;28;20201;-81
2022/10/27 08:10:58;;;;;;;14.13;6.23;;;14.20;99.90;;;;;;5112339;28;20205;-81
2022/10/27 08:13:25;;;;;;;13.13;7.33;;;14.30;99.90;;;;;;5112886;28;20677;-81
2022/10/27 08:15:56;;;;;;;11.00;5.87;;;14.40;99.90;;;;;;5111653;28;20200;-81
2022/10/27 08:18:23;;;;;;;10.10;6.10;;;14.60;99.90;;;;;;5113841;28;20200;-82
2022/10/27 08:20:50;;;;;;;10.75;6.28;;;14.70;99.90;;;;;;5112269;28;20216;-81
2022/10/27 08:23:20;;;;;;;11.33;5.77;;;14.70;99.90;;;;;;5113549;28;20213;-81
2022/10/27 08:25:48;;;;;;;10.07;5.83;;;14.80;99.90;;;;;;5113048;28;20220;-81
2022/10/27 08:28:15;;;;;;;8.97;5.70;;;14.80;99.90;;;;;;5113882;28;20211;-81
2022/10/27 08:30:42;;;;;;;13.90;5.72;;;14.90;99.90;;;;;;5113682;28;20247;-81
2022/10/27 08:33:12;;;;;;;8.90;5.40;;;14.90;99.90;;;;;;5114394;28;20292;-81
2022/10/27 08:35:39;;;;;;;8.60;5.13;;;15.00;99.90;;;;;;5113951;28;20223;-81
2022/10/27 08:38:07;;;;;;;11.57;5.17;;;15.00;99.90;;;;;;5113750;28;20716;-81
2022/10/27 08:40:42;;;;;;;9.23;5.05;;;15.00;99.90;;;;;;5113898;28;20225;-81
2022/10/27 08:43:30;;;;;;;10.90;5.38;;;15.00;99.90;;;;;;5114014;28;20288;-81
2022/10/27 08:46:02;;;;;;;11.30;5.70;;;15.00;99.90;;;;;;5113924;28;20337;-81
2022/10/27 08:48:33;;;;;;;15.90;6.20;;;15.10;99.90;;;;;;5114257;28;20204;-81
2022/10/27 08:51:01;;;;;;;13.05;5.70;;;15.20;99.90;;;;;;5113051;28;20212;-81
2022/10/27 08:53:31;;;;;;;10.88;5.47;;;15.20;99.90;;;;;;5114358;28;20197;-81
2022/10/27 08:56:05;;;;;;;11.70;5.68;;;15.30;99.90;;;;;;5118030;28;20208;-81
2022/10/27 08:58:36;;;;;;;13.70;5.75;;;15.40;99.90;;;;;;5117567;28;20201;-81
2022/10/27 09:01:16;;;;;;;12.27;5.70;;;15.50;99.90;;;;;;5117329;28;20193;-82
2022/10/27 09:04:07;;;;;;;10.60;5.47;;;15.60;99.90;;;;;;5117247;28;20204;-82
2022/10/27 09:06:38;;;;;;;12.15;6.85;;;15.80;99.90;;;;;;5117243;28;20221;-81
2022/10/27 09:09:13;;;;;;;11.20;6.40;;;15.90;99.90;;;;;;5117447;28;20228;-81
2022/10/27 09:11:48;;;;;;;9.85;5.35;;;16.00;99.90;;;;;;5117160;28;20196;-81
2022/10/27 09:14:28;;;;;;;11.75;5.45;;;16.10;99.90;;;;;;5117192;28;20609;-81
2022/10/27 09:17:01;;;;;;;8.05;5.10;;;16.20;99.90;;;;;;5117508;28;20204;-81
2022/10/27 09:19:32;;;;;;;9.00;5.45;;;16.30;99.90;;;;;;5117449;28;20227;-81
2022/10/27 09:22:02;;;;;;;8.18;5.50;;;16.50;99.90;;;;;;5117227;28;20201;-81
2022/10/27 09:24:31;;;;;;;8.18;4.65;;;16.70;99.90;;;;;;5117393;28;20210;-81
2022/10/27 09:26:59;;;;;;;5.40;3.40;;;16.90;99.90;;;;;;5117953;28;20221;-81
2022/10/27 09:29:29;;;;;;;8.13;3.92;;;17.10;99.90;;;;;;5116679;28;20236;-81
2022/10/27 09:32:00;;;;;;;6.00;3.47;;;17.30;99.90;;;;;;5116831;28;20573;-81
2022/10/27 09:34:34;;;;;;;3.97;3.10;;;17.40;99.90;;;;;;5117253;28;20207;-82
2022/10/27 09:37:01;;;;;;;4.18;3.13;;;17.50;99.90;;;;;;5117128;28;20569;-81
2022/10/27 09:39:28;;;;;;;5.57;3.30;;;17.70;99.90;;;;;;5116503;28;20231;-81
2022/10/27 09:41:55;;;;;;;6.43;3.22;;;17.70;99.90;;;;;;5116599;28;20208;-81
2022/10/27 09:44:23;;;;;;;5.20;3.60;;;18.00;99.90;;;;;;5116799;28;20570;-81
2022/10/27 09:46:53;;;;;;;5.10;2.78;;;18.20;99.90;;;;;;5116667;28;20339;-82
2022/10/27 09:49:23;;;;;;;5.93;3.00;;;18.30;99.90;;;;;;5117135;28;20221;-81
2022/10/27 09:51:55;;;;;;;4.15;2.92;;;18.60;99.90;;;;;;5116732;28;20197;-81
2022/10/27 09:54:30;;;;;;;6.22;3.00;;;18.90;99.90;;;;;;5116571;28;20580;-82
2022/10/27 09:57:04;;;;;;;4.28;2.92;;;19.10;99.90;;;;;;5114538;28;20199;-82
2022/10/27 09:59:31;;;;;;;8.68;3.67;;;19.40;99.90;;;;;;5118306;27;20681;-81
2022/10/27 10:01:58;;;;;;;7.90;3.33;;;19.50;99.90;;;;;;5130460;27;20653;-82
2022/10/27 10:04:28;;;;;;;7.63;2.95;;;19.50;99.90;;;;;;5115374;28;20212;-81
2022/10/27 10:06:58;;;;;;;4.47;2.88;;;19.80;99.90;;;;;;5115683;28;20711;-81
2022/10/27 10:09:28;;;;;;;9.20;3.50;;;19.70;99.90;;;;;;5115862;28;20240;-82
2022/10/27 10:12:28;;;;;;;4.35;3.00;;;19.90;99.90;;;;;;5115129;28;20566;-82
2022/10/27 10:15:18;;;;;;;7.55;3.33;;;19.90;99.90;;;;;;5045322;28;20195;-82
2022/10/27 10:17:52;;;;;;;3.92;3.00;;;19.90;99.90;;;;;;5051804;28;20210;-82
2022/10/27 10:20:33;;;;;;;5.00;2.70;;;20.00;99.90;;;;;;5093896;28;20592;-82
2022/10/27 10:23:04;;;;;;;3.53;2.50;;;20.20;99.90;;;;;;5114117;28;20279;-82
2022/10/27 10:25:33;;;;;;;5.10;3.03;;;20.10;99.90;;;;;;5116121;28;20204;-82
2022/10/27 10:28:02;;;;;;;4.32;2.88;;;20.10;99.90;;;;;;5116376;28;20205;-82
2022/10/27 10:30:32;;;;;;;5.25;2.70;;;20.10;99.90;;;;;;5115728;28;20221;-82
2022/10/27 10:33:00;;;;;;;5.10;2.65;;;20.20;99.90;;;;;;5115482;28;20201;-82
2022/10/27 10:35:45;;;;;;;7.03;2.80;;;20.30;99.90;;;;;;5116609;28;20209;-82
2022/10/27 10:38:33;;;;;;;4.72;2.70;;;20.40;99.90;;;;;;5116278;28;20224;-82
2022/10/27 10:41:02;;;;;;;4.70;2.90;;;20.70;99.90;;;;;;5115235;28;20688;-82
2022/10/27 10:43:29;;;;;;;6.05;2.50;;;20.60;99.90;;;;;;5115939;28;20205;-82
2022/10/27 10:45:57;;;;;;;4.93;2.47;;;20.70;99.90;;;;;;5115439;28;20627;-82
2022/10/27 10:48:34;;;;;;;4.70;2.70;;;21.20;99.90;;;;;;5114281;28;20203;-81
2022/10/27 10:51:01;;;;;;;5.55;2.20;;;21.00;99.90;;;;;;5116008;28;20574;-82
2022/10/27 10:53:32;;;;;;;6.75;2.95;;;20.70;1.00;;;;;;5116435;28;20226;-82
2022/10/27 10:56:04;;;;;;;6.35;2.58;;;21.00;99.90;;;;;;5115026;28;20203;-82
2022/10/27 10:58:35;;;;;;;6.45;2.58;;;21.00;1.00;;;;;;5095698;28;20198;-82
2022/10/27 11:01:05;;;;;;;4.00;2.20;;;21.10;1.00;;;;;;5102344;28;20205;-81
2022/10/27 11:03:35;;;;;;;4.40;2.22;;;21.30;1.00;;;;;;5116912;28;20291;-82
2022/10/27 11:06:04;;;;;;;2.50;2.30;;;21.20;1.00;;;;;;5124709;28;20225;-82
2022/10/27 11:08:41;;;;;;;4.47;2.30;;;21.30;1.00;;;;;;5132197;28;20264;-81
2022/10/27 11:11:16;;;;;;;2.45;2.17;;;21.30;1.00;;;;;;5133702;28;20212;-81
2022/10/27 11:13:47;;;;;;;3.00;2.20;;;21.30;1.00;;;;;;5134015;28;20252;-81
2022/10/27 11:16:15;;;;;;;4.20;2.45;;;21.20;1.00;;;;;;5128887;28;20197;-80
2022/10/27 11:18:49;;;;;;;2.80;2.08;;;21.40;1.00;;;;;;5120676;28;20200;-80
2022/10/27 11:21:25;;;;;;;2.95;2.30;;;21.60;1.00;;;;;;5118808;28;20210;-80
2022/10/27 11:23:57;;;;;;;4.05;2.20;;;21.10;1.00;;;;;;5116809;28;20265;-80
2022/10/27 11:26:32;;;;;;;2.78;2.33;;;21.60;1.00;;;;;;5121514;28;20217;-81
2022/10/27 11:29:05;;;;;;;2.85;2.50;;;21.90;1.00;;;;;;5127280;28;20226;-82
2022/10/27 11:31:38;;;;;;;7.80;2.70;;;21.80;92.10;;;;;;5133134;28;20205;-82
2022/10/27 11:34:13;;;;;;;5.47;2.25;;;21.90;99.90;;;;;;5134094;28;20201;-82
2022/10/27 11:36:44;;;;;;;4.25;2.03;;;21.70;1.00;;;;;;5132569;28;20200;-82
2022/10/27 11:39:20;;;;;;;5.07;2.20;;;21.60;1.00;;;;;;5132325;28;20228;-82
2022/10/27 11:41:53;;;;;;;4.32;2.08;;;22.10;99.90;;;;;;5127254;28;20670;-82
2022/10/27 11:44:29;;;;;;;4.50;2.17;;;21.80;99.90;;;;;;5131076;28;20268;-83
2022/10/27 11:47:00;;;;;;;3.63;1.65;;;21.80;1.00;;;;;;5131139;28;20275;-82
2022/10/27 11:49:36;;;;;;;4.53;1.75;;;21.80;99.90;;;;;;5130677;28;20697;-82
2022/10/27 11:52:10;;;;;;;2.97;1.80;;;21.90;1.00;;;;;;5128642;28;20200;-82
2022/10/27 11:54:39;;;;;;;2.53;1.65;;;22.00;1.00;;;;;;5131299;28;20208;-82
2022/10/27 11:57:19;;;;;;;2.20;1.60;;;22.20;1.00;;;;;;5130967;28;20655;-82
2022/10/27 12:00:00;;;;;;;5.55;1.95;;;22.30;1.00;;;;;;5130924;28;20287;-81
2022/10/27 12:03:07;;;;;;;1.65;1.55;;;22.10;1.00;;;;;;5130799;28;20242;-81
2022/10/27 12:05:42;;;;;;;3.30;2.00;;;21.90;1.00;;;;;;5133584;28;20234;-81
2022/10/27 12:08:21;;;;;;;3.42;2.08;;;22.60;1.00;;;;;;5129845;28;20204;-82
2022/10/27 12:11:04;;;;;;;5.07;2.10;;;24.00;99.90;;;;;;5131624;28;20209;-81
2022/10/27 12:13:37;;;;;;;4.88;2.97;;;24.90;1.00;;;;;;5130853;28;20306;-82
2022/10/27 12:16:11;;;;;;;2.92;2.00;;;25.20;99.90;;;;;;5130883;28;20224;-81
2022/10/27 12:18:46;;;;;;;3.97;1.88;;;25.60;99.90;;;;;;5131766;28;20217;-82
2022/10/27 12:21:18;;;;;;;5.30;1.90;;;25.40;99.90;;;;;;5131848;28;20240;-80
2022/10/27 12:23:50;;;;;;;4.25;1.63;;;25.70;83.80;;;;;;5132472;28;20208;-80
2022/10/27 12:26:22;;;;;;;3.08;1.70;;;25.20;1.00;;;;;;5133102;28;20225;-80
2022/10/27 12:28:50;;;;;;;2.53;1.65;;;25.30;1.00;;;;;;5131705;28;20203;-81
2022/10/27 12:31:22;;;;;;;2.28;1.60;;;25.80;1.00;;;;;;5132885;28;20195;-80
2022/10/27 12:33:55;;;;;;;4.47;1.33;;;25.70;1.00;;;;;;5135111;28;20278;-79
2022/10/27 12:36:26;;;;;;;3.42;1.67;;;26.00;1.00;;;;;;5129598;28;20204;-80
2022/10/27 12:39:02;;;;;;;4.57;1.30;;;25.80;1.00;;;;;;5127477;28;20229;-80
2022/10/27 12:41:34;;;;;;;2.17;1.25;;;25.50;1.00;;;;;;5130566;28;20200;-80
2022/10/27 12:44:14;;;;;;;3.75;1.42;;;25.80;1.00;;;;;;5136536;28;20296;-80
2022/10/27 12:46:58;;;;;;;2.75;1.23;;;25.60;99.90;;;;;;5136220;28;20221;-80
2022/10/27 12:49:32;;;;;;;6.40;1.70;;;24.30;99.90;;;;;;5136641;28;20235;-81
2022/10/27 12:52:05;;;;;;;4.97;1.50;;;23.90;99.90;;;;;;5136643;28;20199;-80
2022/10/27 12:54:58;;;;;;;3.03;1.40;;;24.40;99.90;;;;;;5137138;28;20209;-80
2022/10/27 12:57:35;;;;;;;2.50;1.17;;;24.50;99.90;;;;;;5136693;28;20200;-80
2022/10/27 13:00:07;;;;;;;2.55;1.20;;;23.60;3.40;;;;;;5136073;28;20311;-80